createdAt,value
2022-11-24T00:00:25.772Z,0.50
2022-11-24T00:05:25.749Z,0.38
2022-11-24T00:10:25.413Z,0.73
2022-11-24T00:12:55.754Z,0.32
2022-11-24T00:15:26.071Z,0.40
2022-11-24T00:17:56.373Z,0.52
2022-11-24T00:22:57.160Z,0.40
2022-11-24T00:25:27.563Z,0.68
2022-11-24T00:27:57.852Z,0.63
2022-11-24T00:32:58.012Z,0.38
2022-11-24T00:37:58.137Z,0.30
2022-11-24T00:40:33.617Z,0.30
2022-11-24T00:43:05.334Z,0.60
2022-11-24T00:45:35.537Z,0.38
2022-11-24T00:48:06.050Z,0.60
2022-11-24T00:50:37.178Z,0.60
2022-11-24T00:53:07.441Z,0.40
2022-11-24T00:58:07.628Z,0.52
2022-11-24T01:00:37.910Z,0.65
2022-11-24T01:05:41.372Z,0.40
2022-11-24T01:08:12.773Z,0.75
2022-11-24T01:10:43.174Z,1.00
2022-11-24T01:13:14.532Z,0.38
2022-11-24T01:15:45.178Z,0.50
2022-11-24T01:18:15.608Z,0.55
2022-11-24T01:20:45.859Z,0.60
2022-11-24T01:25:45.714Z,0.50
2022-11-24T01:28:16.269Z,1.00
2022-11-24T01:30:48.398Z,0.40
2022-11-24T01:33:18.709Z,0.50
2022-11-24T01:38:19.181Z,0.90
2022-11-24T01:40:49.640Z,0.93
2022-11-24T01:43:22.785Z,1.00
2022-11-24T01:45:53.093Z,1.10
2022-11-24T01:48:29.253Z,1.25
2022-11-24T01:51:12.173Z,1.30
2022-11-24T01:53:45.978Z,1.55
2022-11-24T01:56:16.922Z,1.38
2022-11-24T01:58:48.365Z,0.52
2022-11-24T02:01:19.071Z,0.63
2022-11-24T02:03:50.535Z,0.40
2022-11-24T02:06:29.097Z,0.52
2022-11-24T02:09:25.019Z,0.43
2022-11-24T02:11:57.224Z,0.38
2022-11-24T02:14:28.831Z,0.77
2022-11-24T02:16:59.186Z,0.55
2022-11-24T02:22:26.405Z,0.32
2022-11-24T02:25:07.986Z,1.08
2022-11-24T02:27:38.545Z,0.95
2022-11-24T02:30:09.215Z,0.60
2022-11-24T02:32:43.700Z,0.60
2022-11-24T02:35:15.672Z,0.65
2022-11-24T02:37:46.345Z,0.60
2022-11-24T02:40:27.249Z,1.40
2022-11-24T02:43:02.043Z,1.38
2022-11-24T02:45:33.134Z,1.75
2022-11-24T02:48:03.408Z,2.05
2022-11-24T02:53:03.542Z,1.20
2022-11-24T02:58:04.500Z,0.90
2022-11-24T03:00:34.954Z,0.85
2022-11-24T03:03:06.123Z,0.60
2022-11-24T03:05:36.455Z,0.50
2022-11-24T03:10:36.649Z,0.40
2022-11-24T03:13:07.017Z,0.70
2022-11-24T03:15:38.115Z,0.70
2022-11-24T03:18:08.657Z,0.88
2022-11-24T03:20:39.120Z,0.77
2022-11-24T03:23:09.472Z,1.00
2022-11-24T03:28:09.474Z,0.55
2022-11-24T03:33:09.647Z,0.70
2022-11-24T03:35:39.975Z,0.90
2022-11-24T03:38:10.577Z,0.90
2022-11-24T03:40:40.859Z,0.60
2022-11-24T03:45:48.299Z,0.82
2022-11-24T03:48:22.404Z,0.60
2022-11-24T03:51:04.434Z,0.73
2022-11-24T03:53:35.644Z,0.82
2022-11-24T03:56:06.240Z,0.80
2022-11-24T03:58:36.823Z,0.57
2022-11-24T04:01:07.215Z,0.40
2022-11-24T04:06:07.068Z,0.43
2022-11-24T04:11:08.292Z,0.77
2022-11-24T04:13:38.635Z,0.95
2022-11-24T04:18:38.589Z,1.30
2022-11-24T04:21:08.735Z,0.85
2022-11-24T04:23:38.690Z,0.70
2022-11-24T04:26:09.261Z,0.30
2022-11-24T04:28:39.766Z,1.00
2022-11-24T04:31:10.152Z,0.80
2022-11-24T04:33:40.436Z,0.98
2022-11-24T04:36:10.652Z,0.50
2022-11-24T04:39:24.689Z,0.70
2022-11-24T04:41:31.356Z,0.80
2022-11-24T04:44:01.347Z,0.90
2022-11-24T04:46:31.611Z,0.98
2022-11-24T04:49:01.908Z,0.88
2022-11-24T04:51:32.126Z,0.80
2022-11-24T04:54:02.354Z,1.02
2022-11-24T04:56:32.587Z,0.90
2022-11-24T04:59:08.023Z,1.02
2022-11-24T05:01:38.801Z,0.80
2022-11-24T05:06:38.650Z,0.93
2022-11-24T05:11:39.359Z,0.98
2022-11-24T05:14:09.666Z,0.98
2022-11-24T05:19:09.749Z,0.70
2022-11-24T05:21:40.087Z,1.10
2022-11-24T05:26:40.230Z,0.60
2022-11-24T05:31:40.230Z,0.75
2022-11-24T05:36:56.291Z,0.80
2022-11-24T05:39:26.782Z,0.85
2022-11-24T05:41:57.067Z,0.93
2022-11-24T05:44:27.371Z,0.90
2022-11-24T05:46:57.654Z,0.60
2022-11-24T05:51:57.298Z,0.43
2022-11-24T05:54:27.533Z,0.88
2022-11-24T05:56:58.166Z,1.00
2022-11-24T05:59:28.478Z,1.23
2022-11-24T06:01:58.847Z,1.00
2022-11-24T06:04:29.285Z,0.73
2022-11-24T06:06:59.671Z,0.90
2022-11-24T06:09:30.155Z,0.93
2022-11-24T06:12:00.378Z,1.40
2022-11-24T06:14:30.508Z,1.05
2022-11-24T06:17:01.105Z,0.90
2022-11-24T06:19:32.116Z,1.10
2022-11-24T06:22:02.453Z,0.70
2022-11-24T06:27:02.891Z,0.60
2022-11-24T06:29:33.138Z,0.98
2022-11-24T06:32:03.232Z,1.23
2022-11-24T06:37:04.185Z,1.45
2022-11-24T06:39:34.736Z,1.13
2022-11-24T06:42:05.348Z,1.10
2022-11-24T06:44:35.912Z,1.17
2022-11-24T06:47:06.339Z,1.00
2022-11-24T06:49:36.636Z,1.05
2022-11-24T06:54:36.680Z,1.15
2022-11-24T06:57:07.152Z,1.42
2022-11-24T06:59:37.405Z,1.05
2022-11-24T07:02:08.052Z,0.77
2022-11-24T07:04:38.312Z,1.00
2022-11-24T07:07:08.312Z,1.02
2022-11-24T07:09:38.594Z,0.80
2022-11-24T07:12:09.047Z,1.02
2022-11-24T07:14:39.301Z,1.00
2022-11-24T07:17:09.532Z,0.93
2022-11-24T07:19:39.811Z,0.77
2022-11-24T07:22:10.201Z,1.48
2022-11-24T07:27:10.121Z,1.30
2022-11-24T07:29:40.361Z,1.15
2022-11-24T07:32:10.657Z,1.42
2022-11-24T07:37:10.440Z,0.90
2022-11-24T07:42:11.986Z,1.17
2022-11-24T07:44:42.197Z,1.40
2022-11-24T07:47:12.393Z,2.65
2022-11-24T07:49:42.618Z,2.08
2022-11-24T07:52:12.951Z,1.70
2022-11-24T07:57:12.510Z,2.95
2022-11-24T07:59:42.821Z,2.65
2022-11-24T08:02:14.847Z,3.65
2022-11-24T08:04:44.989Z,2.97
2022-11-24T08:07:15.234Z,4.40
2022-11-24T08:09:45.455Z,4.93
2022-11-24T08:12:15.875Z,6.45
2022-11-24T08:14:46.138Z,6.38
2022-11-24T08:17:16.440Z,6.55
2022-11-24T08:19:47.093Z,7.75
2022-11-24T08:22:17.412Z,6.75
2022-11-24T08:24:49.815Z,7.18
2022-11-24T08:27:21.062Z,6.53
2022-11-24T08:29:51.330Z,6.72
2022-11-24T08:32:22.523Z,4.85
2022-11-24T08:34:59.526Z,5.50
2022-11-24T08:37:34.722Z,4.90
2022-11-24T08:40:05.065Z,4.57
2022-11-24T08:42:35.468Z,4.65
2022-11-24T08:47:59.083Z,4.03
2022-11-24T08:50:29.335Z,3.92
2022-11-24T08:52:59.603Z,3.67
2022-11-24T08:55:29.882Z,3.88
2022-11-24T08:58:00.624Z,4.18
2022-11-24T09:00:30.737Z,3.53
2022-11-24T09:03:01.099Z,2.40
2022-11-24T09:08:22.052Z,2.20
2022-11-24T09:10:52.809Z,1.83
2022-11-24T09:13:23.035Z,2.10
2022-11-24T09:15:53.243Z,2.33
2022-11-24T09:18:26.333Z,2.88
2022-11-24T09:21:15.224Z,2.33
2022-11-24T09:23:46.687Z,1.60
2022-11-24T09:26:18.345Z,1.85
2022-11-24T09:28:49.370Z,1.98
2022-11-24T09:31:20.393Z,1.83
2022-11-24T09:33:50.734Z,1.90
2022-11-24T09:38:51.246Z,2.55
2022-11-24T09:41:45.747Z,1.83
2022-11-24T09:44:38.804Z,1.75
2022-11-24T09:47:40.994Z,1.90
2022-11-24T09:50:45.900Z,2.13
2022-11-24T09:53:18.889Z,1.63
2022-11-24T09:55:55.204Z,1.45
2022-11-24T09:58:47.189Z,2.20
2022-11-24T10:01:26.149Z,1.25
2022-11-24T10:04:01.114Z,1.55
2022-11-24T10:06:46.360Z,2.10
2022-11-24T10:09:37.864Z,1.65
2022-11-24T10:12:32.857Z,1.40
2022-11-24T10:15:23.659Z,1.67
2022-11-24T10:18:33.990Z,1.58
2022-11-24T10:21:25.408Z,1.15
2022-11-24T10:24:01.141Z,1.48
2022-11-24T10:26:39.221Z,1.65
2022-11-24T10:29:17.826Z,1.40
2022-11-24T10:31:50.215Z,1.30
2022-11-24T10:34:43.920Z,1.80
2022-11-24T10:37:18.159Z,2.30
2022-11-24T10:40:00.240Z,2.67
2022-11-24T10:42:38.208Z,1.95
2022-11-24T10:45:16.776Z,1.80
2022-11-24T10:47:48.108Z,2.38
2022-11-24T10:50:21.264Z,2.60
2022-11-24T10:53:24.112Z,3.05
2022-11-24T10:56:00.287Z,1.95
2022-11-24T10:58:41.307Z,1.77
2022-11-24T11:01:17.469Z,1.70
2022-11-24T11:03:57.433Z,1.67
2022-11-24T11:06:32.957Z,2.08
2022-11-24T11:09:09.214Z,1.92
2022-11-24T11:11:41.225Z,2.30
2022-11-24T11:14:14.892Z,1.90
2022-11-24T11:16:53.078Z,1.90
2022-11-24T11:19:48.831Z,2.30
2022-11-24T11:22:38.677Z,1.63
2022-11-24T11:25:14.794Z,1.88
2022-11-24T11:27:45.209Z,2.70
2022-11-24T11:36:19.903Z,2.38
2022-11-24T11:38:50.210Z,2.47
2022-11-24T11:44:28.090Z,3.05
2022-11-24T11:47:00.944Z,3.10
2022-11-24T11:49:31.591Z,2.70
2022-11-24T11:52:01.757Z,3.50
2022-11-24T11:55:15.953Z,3.47
2022-11-24T11:58:12.548Z,3.40
2022-11-24T12:00:50.213Z,2.42
2022-11-24T12:03:32.790Z,2.50
2022-11-24T12:09:19.862Z,2.47
2022-11-24T12:11:56.868Z,2.33
2022-11-24T12:14:43.569Z,2.50
2022-11-24T12:17:55.170Z,2.67
2022-11-24T12:20:58.144Z,2.60
2022-11-24T12:23:52.279Z,3.50
2022-11-24T12:26:40.529Z,3.53
2022-11-24T12:29:32.401Z,3.72
2022-11-24T12:32:20.505Z,3.33
2022-11-24T12:35:19.719Z,3.97
2022-11-24T12:37:55.992Z,4.03
2022-11-24T12:41:18.107Z,3.60
2022-11-24T12:43:55.001Z,3.45
2022-11-24T12:46:57.311Z,2.25
2022-11-24T12:49:58.222Z,1.35
2022-11-24T12:52:36.162Z,1.75
2022-11-24T12:55:07.230Z,1.73
2022-11-24T12:57:56.138Z,0.90
2022-11-24T13:00:36.890Z,0.90
2022-11-24T13:03:12.932Z,1.15
2022-11-24T13:06:23.354Z,1.08
2022-11-24T13:08:54.094Z,0.50
2022-11-24T13:11:24.360Z,0.68
2022-11-24T13:14:00.967Z,0.70
2022-11-24T13:16:48.597Z,1.08
2022-11-24T13:19:35.160Z,0.90
2022-11-24T13:22:12.191Z,0.50
2022-11-24T13:24:43.996Z,0.70
2022-11-24T13:27:17.153Z,0.73
2022-11-24T13:29:49.267Z,0.98
2022-11-24T13:32:22.616Z,1.38
2022-11-24T13:34:55.990Z,0.70
2022-11-24T13:37:35.331Z,0.55
2022-11-24T13:40:15.533Z,0.47
2022-11-24T13:42:58.775Z,0.77
2022-11-24T13:45:52.355Z,0.70
2022-11-24T13:48:22.951Z,0.77
2022-11-24T13:50:54.416Z,0.60
2022-11-24T13:53:27.396Z,0.70
2022-11-24T13:56:31.406Z,0.60
2022-11-24T13:59:18.491Z,0.90
2022-11-24T14:01:59.106Z,0.60
2022-11-24T14:04:31.773Z,0.55
2022-11-24T14:07:14.729Z,0.60
2022-11-24T14:09:51.406Z,0.60
2022-11-24T14:12:28.059Z,0.43
2022-11-24T14:15:27.282Z,0.70
2022-11-24T14:17:57.568Z,0.47
2022-11-24T14:20:29.676Z,0.52
2022-11-24T14:23:01.973Z,0.43
2022-11-24T14:25:33.983Z,0.43
2022-11-24T14:28:04.494Z,0.50
2022-11-24T14:30:34.791Z,0.40
2022-11-24T14:33:06.052Z,0.40
2022-11-24T14:35:37.999Z,0.50
2022-11-24T14:38:10.785Z,0.63
2022-11-24T14:40:51.646Z,0.32
2022-11-24T14:43:34.877Z,0.95
2022-11-24T14:46:10.458Z,0.50
2022-11-24T14:48:54.524Z,0.50
2022-11-24T14:51:29.685Z,0.30
2022-11-24T14:54:16.819Z,0.43
2022-11-24T14:57:05.524Z,0.43
2022-11-24T14:59:39.677Z,0.57
2022-11-24T15:02:45.960Z,0.60
2022-11-24T15:05:17.605Z,0.63
2022-11-24T15:07:49.983Z,0.40
2022-11-24T15:10:29.080Z,0.40
2022-11-24T15:13:05.837Z,0.40
2022-11-24T15:15:38.689Z,0.35
2022-11-24T15:18:42.083Z,0.43
2022-11-24T15:21:18.864Z,0.38
2022-11-24T15:24:19.575Z,0.45
2022-11-24T15:26:49.913Z,0.45
2022-11-24T15:29:20.136Z,0.43
2022-11-24T15:31:52.891Z,0.40
2022-11-24T15:34:23.380Z,0.52
2022-11-24T15:36:53.711Z,0.63
2022-11-24T15:39:23.886Z,0.30
2022-11-24T15:41:54.122Z,0.50
2022-11-24T15:46:53.639Z,0.40
2022-11-24T15:49:23.811Z,0.50
2022-11-24T15:51:53.879Z,0.65
2022-11-24T15:54:25.944Z,0.50
2022-11-24T15:56:56.213Z,0.50
2022-11-24T16:01:55.772Z,0.30
2022-11-24T16:06:55.573Z,0.40
2022-11-24T16:09:25.673Z,0.30
2022-11-24T16:12:06.267Z,0.40
2022-11-24T16:14:37.894Z,0.30
2022-11-24T16:17:08.441Z,0.40
2022-11-24T16:19:41.774Z,0.52
2022-11-24T16:22:12.458Z,0.20
2022-11-24T16:24:42.777Z,0.40
2022-11-24T16:27:12.926Z,0.40
2022-11-24T16:29:43.334Z,0.50
2022-11-24T16:32:13.428Z,0.43
2022-11-24T16:34:43.839Z,0.45
2022-11-24T16:37:14.118Z,0.50
2022-11-24T16:42:20.317Z,0.30
2022-11-24T16:44:50.941Z,0.25
2022-11-24T16:47:21.620Z,0.68
2022-11-24T16:49:52.013Z,0.30
2022-11-24T16:52:22.213Z,0.20
2022-11-24T16:54:52.604Z,0.38
2022-11-24T16:57:22.895Z,0.35
2022-11-24T16:59:53.176Z,0.70
2022-11-24T17:02:23.628Z,0.43
2022-11-24T17:04:54.563Z,0.10
2022-11-24T17:07:24.784Z,0.30
2022-11-24T17:09:55.357Z,0.30
2022-11-24T17:12:25.668Z,0.38
2022-11-24T17:15:24.344Z,0.17
2022-11-24T17:18:16.162Z,0.35
2022-11-24T17:20:38.086Z,0.28
2022-11-24T17:23:08.518Z,0.57
2022-11-24T17:25:38.799Z,0.40
2022-11-24T17:28:09.109Z,0.40
2022-11-24T17:30:39.788Z,0.38
2022-11-24T17:33:10.007Z,0.70
2022-11-24T17:35:40.433Z,0.50
2022-11-24T17:38:10.608Z,0.30
2022-11-24T17:40:41.027Z,0.45
2022-11-24T17:43:11.293Z,0.20
2022-11-24T17:48:11.403Z,0.32
2022-11-24T17:50:41.806Z,0.30
2022-11-24T17:53:12.489Z,0.38
2022-11-24T17:55:43.466Z,0.30
2022-11-24T17:58:13.810Z,0.22
2022-11-24T18:00:44.175Z,0.30
2022-11-24T18:03:14.474Z,0.60
2022-11-24T18:05:45.214Z,0.30
2022-11-24T18:08:15.678Z,0.25
2022-11-24T18:10:45.978Z,0.20
2022-11-24T18:13:40.693Z,0.28
2022-11-24T18:16:10.119Z,0.30
2022-11-24T18:18:40.701Z,0.50
2022-11-24T18:21:19.037Z,0.38
2022-11-24T18:23:49.369Z,0.32
2022-11-24T18:26:19.926Z,0.40
2022-11-24T18:28:50.519Z,0.30
2022-11-24T18:31:21.963Z,0.28
2022-11-24T18:33:52.233Z,0.38
2022-11-24T18:36:29.718Z,0.52
2022-11-24T18:39:09.015Z,0.50
2022-11-24T18:41:41.027Z,0.30
2022-11-24T18:44:11.244Z,0.25
2022-11-24T18:46:41.536Z,0.22
2022-11-24T18:49:11.944Z,0.40
2022-11-24T18:51:42.518Z,0.30
2022-11-24T18:54:12.650Z,0.30
2022-11-24T18:56:43.033Z,0.30
2022-11-24T18:59:13.303Z,0.30
2022-11-24T19:04:14.161Z,0.50
2022-11-24T19:06:45.238Z,0.43
2022-11-24T19:09:18.747Z,0.20
2022-11-24T19:11:49.357Z,0.50
2022-11-24T19:14:21.081Z,0.22
2022-11-24T19:16:51.503Z,0.57
2022-11-24T19:19:21.933Z,0.63
2022-11-24T19:21:52.236Z,0.50
2022-11-24T19:24:22.711Z,0.40
2022-11-24T19:26:53.112Z,0.40
2022-11-24T19:29:24.026Z,0.30
2022-11-24T19:31:56.830Z,0.50
2022-11-24T19:34:27.252Z,0.30
2022-11-24T19:36:57.636Z,0.28
2022-11-24T19:39:27.981Z,0.45
2022-11-24T19:41:58.326Z,0.30
2022-11-24T19:44:28.491Z,0.35
2022-11-24T19:46:58.843Z,0.40
2022-11-24T19:49:29.153Z,0.40
2022-11-24T19:51:59.350Z,0.20
2022-11-24T19:54:29.721Z,0.30
2022-11-24T19:57:00.080Z,0.40
2022-11-24T19:59:30.354Z,0.45
2022-11-24T20:02:01.327Z,0.38
2022-11-24T20:04:33.859Z,0.30
2022-11-24T20:07:04.754Z,0.40
2022-11-24T20:09:35.498Z,0.43
2022-11-24T20:12:06.185Z,0.55
2022-11-24T20:14:36.665Z,0.47
2022-11-24T20:17:08.076Z,0.50
2022-11-24T20:19:38.357Z,0.40
2022-11-24T20:22:08.716Z,0.50
2022-11-24T20:24:39.126Z,0.43
2022-11-24T20:27:09.559Z,0.50
2022-11-24T20:29:46.460Z,0.60
2022-11-24T20:32:21.001Z,0.50
2022-11-24T20:34:51.562Z,0.43
2022-11-24T20:37:22.230Z,0.50
2022-11-24T20:39:52.759Z,0.60
2022-11-24T20:42:23.187Z,0.60
2022-11-24T20:44:53.621Z,0.40
2022-11-24T20:47:23.823Z,0.85
2022-11-24T20:49:54.001Z,0.70
2022-11-24T20:52:24.385Z,0.57
2022-11-24T20:54:54.626Z,0.20
2022-11-24T20:57:24.886Z,0.55
2022-11-24T20:59:55.370Z,0.50
2022-11-24T21:04:55.377Z,0.55
2022-11-24T21:07:26.044Z,0.38
2022-11-24T21:09:56.361Z,0.60
2022-11-24T21:12:26.603Z,0.45
2022-11-24T21:14:56.855Z,0.80
2022-11-24T21:17:27.244Z,0.40
2022-11-24T21:22:31.404Z,0.43
2022-11-24T21:25:01.657Z,0.95
2022-11-24T21:27:32.130Z,0.52
2022-11-24T21:30:02.373Z,0.30
2022-11-24T21:32:33.572Z,0.30
2022-11-24T21:35:04.093Z,0.40
2022-11-24T21:37:34.316Z,0.52
2022-11-24T21:40:04.676Z,0.38
2022-11-24T21:42:34.905Z,0.47
2022-11-24T21:45:05.249Z,0.38
2022-11-24T21:47:35.864Z,0.30
2022-11-24T21:50:07.894Z,0.95
2022-11-24T21:52:38.302Z,1.15
2022-11-24T21:55:08.968Z,1.00
2022-11-24T21:57:39.920Z,0.95
2022-11-24T22:00:10.436Z,1.00
2022-11-24T22:02:40.811Z,0.80
2022-11-24T22:05:11.523Z,0.80
2022-11-24T22:07:42.155Z,0.40
2022-11-24T22:10:12.755Z,0.30
2022-11-24T22:12:42.999Z,0.35
2022-11-24T22:15:13.249Z,0.52
2022-11-24T22:17:43.580Z,0.40
2022-11-24T22:22:43.108Z,0.28
2022-11-24T22:25:13.378Z,0.15
2022-11-24T22:27:44.134Z,0.28
2022-11-24T22:30:14.645Z,0.13
2022-11-24T22:32:44.699Z,0.47
2022-11-24T22:35:14.719Z,0.60
2022-11-24T22:37:44.763Z,0.50
2022-11-24T22:40:14.961Z,0.95
2022-11-24T22:42:45.181Z,0.93
2022-11-24T22:47:45.073Z,0.38
2022-11-24T22:52:45.433Z,0.70
2022-11-24T22:57:48.251Z,0.40
2022-11-24T23:00:20.013Z,0.40
2022-11-24T23:02:50.714Z,0.50
2022-11-24T23:05:21.089Z,0.63
2022-11-24T23:07:51.499Z,0.55
2022-11-24T23:10:22.323Z,0.70
2022-11-24T23:12:52.738Z,0.82
2022-11-24T23:15:23.006Z,0.60
2022-11-24T23:17:53.478Z,0.65
2022-11-24T23:20:24.037Z,0.60
2022-11-24T23:22:56.552Z,0.90
2022-11-24T23:25:26.868Z,0.60
2022-11-24T23:27:57.264Z,0.68
2022-11-24T23:30:27.584Z,0.80
2022-11-24T23:32:57.950Z,1.88
2022-11-24T23:35:28.386Z,1.00
2022-11-24T23:40:37.992Z,0.30
2022-11-24T23:45:37.685Z,0.80
2022-11-24T23:48:09.770Z,0.47
2022-11-24T23:50:40.158Z,0.38
2022-11-24T23:53:10.480Z,0.40
2022-11-24T23:55:40.764Z,0.38
